createdAt,value
2022-10-24T00:01:32.492Z,8.90
2022-10-24T00:04:00.640Z,9.50
2022-10-24T00:06:28.666Z,13.10
2022-10-24T00:08:56.462Z,12.40
2022-10-24T00:11:27.067Z,9.00
2022-10-24T00:13:57.121Z,8.60
2022-10-24T00:16:25.934Z,7.80
2022-10-24T00:18:54.151Z,7.50
2022-10-24T00:21:22.736Z,8.40
2022-10-24T00:23:50.578Z,7.40
2022-10-24T00:26:18.396Z,7.90
2022-10-24T00:28:46.253Z,6.80
2022-10-24T00:31:16.457Z,7.20
2022-10-24T00:33:45.659Z,6.50
2022-10-24T00:36:16.381Z,6.70
2022-10-24T00:38:44.427Z,6.70
2022-10-24T00:41:24.263Z,6.40
2022-10-24T00:44:17.646Z,6.60
2022-10-24T00:46:50.843Z,6.70
2022-10-24T00:49:23.084Z,6.20
2022-10-24T00:51:54.803Z,6.90
2022-10-24T00:54:23.211Z,6.40
2022-10-24T00:57:08.604Z,6.40
2022-10-24T00:59:38.593Z,6.30
2022-10-24T01:02:06.394Z,6.70
2022-10-24T01:04:34.435Z,6.30
2022-10-24T01:07:19.117Z,6.10
2022-10-24T01:10:02.127Z,6.60
2022-10-24T01:12:48.776Z,6.40
2022-10-24T01:15:28.117Z,6.40
2022-10-24T01:18:11.733Z,6.90
2022-10-24T01:20:54.705Z,6.30
2022-10-24T01:23:48.428Z,5.90
2022-10-24T01:26:53.354Z,6.10
2022-10-24T01:29:46.055Z,6.30
2022-10-24T01:32:32.241Z,5.70
2022-10-24T01:34:59.929Z,5.60
2022-10-24T01:37:39.280Z,5.40
2022-10-24T01:40:42.312Z,5.20
2022-10-24T01:43:13.366Z,5.50
2022-10-24T01:45:47.237Z,5.50
2022-10-24T01:48:20.023Z,5.40
2022-10-24T01:50:51.833Z,5.40
2022-10-24T01:53:24.893Z,5.40
2022-10-24T01:55:54.364Z,5.00
2022-10-24T01:58:22.590Z,4.90
2022-10-24T02:00:55.128Z,5.50
2022-10-24T02:03:29.676Z,6.00
2022-10-24T02:06:11.631Z,5.40
2022-10-24T02:08:46.745Z,5.30
2022-10-24T02:11:14.650Z,5.30
2022-10-24T02:14:03.082Z,4.80
2022-10-24T02:16:31.756Z,4.90
2022-10-24T02:19:00.952Z,5.00
2022-10-24T02:21:43.483Z,4.50
2022-10-24T02:24:20.201Z,5.00
2022-10-24T02:27:08.674Z,4.50
2022-10-24T02:30:17.049Z,4.50
2022-10-24T02:32:48.778Z,4.20
2022-10-24T02:35:19.609Z,4.30
2022-10-24T02:40:22.649Z,4.20
2022-10-24T02:42:55.256Z,4.10
2022-10-24T02:45:24.136Z,4.20
2022-10-24T02:47:58.559Z,4.70
2022-10-24T02:50:27.113Z,4.20
2022-10-24T02:52:54.914Z,4.30
2022-10-24T02:55:22.742Z,4.50
2022-10-24T02:57:50.647Z,4.80
2022-10-24T03:00:18.838Z,4.50
2022-10-24T03:02:46.919Z,4.60
2022-10-24T03:05:14.875Z,4.40
2022-10-24T03:07:42.561Z,4.40
2022-10-24T03:10:10.596Z,5.20
2022-10-24T03:12:38.524Z,6.20
2022-10-24T03:15:07.145Z,5.30
2022-10-24T03:17:34.962Z,6.10
2022-10-24T03:20:03.015Z,6.50
2022-10-24T03:22:31.042Z,5.70
2022-10-24T03:25:02.042Z,5.80
2022-10-24T03:27:30.274Z,5.50
2022-10-24T03:29:58.049Z,4.60
2022-10-24T03:34:54.575Z,4.70
2022-10-24T03:37:22.350Z,4.30
2022-10-24T03:39:50.338Z,4.40
2022-10-24T03:42:18.166Z,3.80
2022-10-24T03:44:46.270Z,4.60
2022-10-24T03:47:14.012Z,4.70
2022-10-24T03:49:41.747Z,4.80
2022-10-24T03:52:09.970Z,5.20
2022-10-24T03:54:38.814Z,5.10
2022-10-24T03:57:06.617Z,5.70
2022-10-24T03:59:34.527Z,4.70
2022-10-24T04:02:03.207Z,4.20
2022-10-24T04:04:30.924Z,4.20
2022-10-24T04:07:00.324Z,6.60
2022-10-24T04:09:28.438Z,4.80
2022-10-24T04:11:56.218Z,4.00
2022-10-24T04:14:24.026Z,4.10
2022-10-24T04:16:51.822Z,3.70
2022-10-24T04:19:19.763Z,4.40
2022-10-24T04:21:48.083Z,4.10
2022-10-24T04:24:16.533Z,4.30
2022-10-24T04:26:44.553Z,4.60
2022-10-24T04:29:12.592Z,4.00
2022-10-24T04:31:40.592Z,4.40
2022-10-24T04:34:08.448Z,3.90
2022-10-24T04:36:36.154Z,3.70
2022-10-24T04:39:07.971Z,4.10
2022-10-24T04:41:35.797Z,4.60
2022-10-24T04:44:03.940Z,4.30
2022-10-24T04:46:31.729Z,4.60
2022-10-24T04:48:59.786Z,4.70
2022-10-24T04:51:27.683Z,4.30
2022-10-24T04:53:55.475Z,4.70
2022-10-24T04:56:25.933Z,4.00
2022-10-24T04:58:53.756Z,4.00
2022-10-24T05:01:21.519Z,4.60
2022-10-24T05:03:49.430Z,4.20
2022-10-24T05:06:17.204Z,4.30
2022-10-24T05:08:45.013Z,4.00
2022-10-24T05:11:12.947Z,6.50
2022-10-24T05:13:42.262Z,4.30
2022-10-24T05:16:10.128Z,3.70
2022-10-24T05:18:37.869Z,4.20
2022-10-24T05:21:05.958Z,3.70
2022-10-24T05:23:33.890Z,3.50
2022-10-24T05:26:01.907Z,3.50
2022-10-24T05:28:29.691Z,3.70
2022-10-24T05:30:57.675Z,4.30
2022-10-24T05:33:25.464Z,4.70
2022-10-24T05:35:53.594Z,4.80
2022-10-24T05:38:21.495Z,4.90
2022-10-24T05:40:51.414Z,4.40
2022-10-24T05:43:19.605Z,3.60
2022-10-24T05:48:22.099Z,4.00
2022-10-24T05:50:49.940Z,4.60
2022-10-24T05:53:17.793Z,4.40
2022-10-24T05:55:45.589Z,4.40
2022-10-24T05:58:13.266Z,4.40
2022-10-24T06:00:41.090Z,3.40
2022-10-24T06:03:11.306Z,3.30
2022-10-24T06:05:39.450Z,4.60
2022-10-24T06:08:07.557Z,3.50
2022-10-24T06:10:35.594Z,3.60
2022-10-24T06:13:03.639Z,3.30
2022-10-24T06:15:31.874Z,3.40
2022-10-24T06:18:00.623Z,3.70
2022-10-24T06:20:28.481Z,3.10
2022-10-24T06:22:56.328Z,3.10
2022-10-24T06:25:24.211Z,3.60
2022-10-24T06:27:52.020Z,3.50
2022-10-24T06:30:19.963Z,3.20
2022-10-24T06:32:48.029Z,3.70
2022-10-24T06:35:16.116Z,3.30
2022-10-24T06:37:47.187Z,3.20
2022-10-24T06:40:17.428Z,3.30
2022-10-24T06:42:45.513Z,3.40
2022-10-24T06:45:13.991Z,3.60
2022-10-24T06:47:41.807Z,4.30
2022-10-24T06:50:09.961Z,4.20
2022-10-24T06:52:40.166Z,4.60
2022-10-24T06:55:08.648Z,4.20
2022-10-24T06:57:36.682Z,4.20
2022-10-24T07:00:06.232Z,4.30
2022-10-24T07:02:34.161Z,4.20
2022-10-24T07:05:02.198Z,4.80
2022-10-24T07:07:30.080Z,4.20
2022-10-24T07:09:57.827Z,4.40
2022-10-24T07:12:26.218Z,4.50
2022-10-24T07:14:54.030Z,4.10
2022-10-24T07:17:21.914Z,4.70
2022-10-24T07:19:57.197Z,5.50
2022-10-24T07:22:25.044Z,4.90
2022-10-24T07:24:54.218Z,5.30
2022-10-24T07:27:22.609Z,5.10
2022-10-24T07:29:51.708Z,5.10
2022-10-24T07:32:21.008Z,5.80
2022-10-24T07:34:48.868Z,5.40
2022-10-24T07:37:18.192Z,6.60
2022-10-24T07:39:46.688Z,6.50
2022-10-24T07:42:16.013Z,7.20
2022-10-24T07:44:43.705Z,7.20
2022-10-24T07:47:12.141Z,5.90
2022-10-24T07:49:40.567Z,7.20
2022-10-24T07:52:08.450Z,5.60
2022-10-24T07:54:37.481Z,6.30
2022-10-24T07:57:05.735Z,6.60
2022-10-24T07:59:48.778Z,6.30
2022-10-24T08:02:19.027Z,6.80
2022-10-24T08:04:46.698Z,6.10
2022-10-24T08:07:14.535Z,6.10
2022-10-24T08:09:46.122Z,5.00
2022-10-24T08:12:14.061Z,5.30
2022-10-24T08:14:42.200Z,4.70
2022-10-24T08:17:10.819Z,4.80
2022-10-24T08:19:43.869Z,4.70
2022-10-24T08:22:12.669Z,5.00
2022-10-24T08:24:42.217Z,4.20
2022-10-24T08:27:10.095Z,4.80
2022-10-24T08:29:38.001Z,5.00
2022-10-24T08:32:06.903Z,4.60
2022-10-24T08:34:35.110Z,4.40
2022-10-24T08:37:04.131Z,4.80
2022-10-24T08:39:32.043Z,5.90
2022-10-24T08:42:05.910Z,5.60
2022-10-24T08:44:42.225Z,5.70
2022-10-24T08:50:13.042Z,6.80
2022-10-24T08:52:59.231Z,7.40
2022-10-24T08:55:49.475Z,7.30
2022-10-24T08:58:30.349Z,6.70
2022-10-24T09:01:02.059Z,8.70
2022-10-24T09:03:57.700Z,6.20
2022-10-24T09:06:29.353Z,7.60
2022-10-24T09:08:59.492Z,6.20
2022-10-24T09:11:42.445Z,5.80
2022-10-24T09:14:21.309Z,6.20
2022-10-24T09:17:02.447Z,6.20
2022-10-24T09:19:31.166Z,5.80
2022-10-24T09:22:01.342Z,4.80
2022-10-24T09:24:37.811Z,4.60
2022-10-24T09:27:10.799Z,4.90
2022-10-24T09:29:39.036Z,5.00
2022-10-24T09:32:15.183Z,5.00
2022-10-24T09:34:43.714Z,5.00
2022-10-24T09:37:34.390Z,4.30
2022-10-24T09:40:08.873Z,4.80
2022-10-24T09:42:38.772Z,4.60
2022-10-24T09:45:25.204Z,5.10
2022-10-24T09:47:59.711Z,5.30
2022-10-24T09:50:27.954Z,5.30
2022-10-24T09:52:58.665Z,5.20
2022-10-24T09:58:04.076Z,4.80
2022-10-24T10:00:36.423Z,5.30
2022-10-24T10:03:23.462Z,4.90
2022-10-24T10:05:57.896Z,5.00
2022-10-24T10:08:32.079Z,4.60
2022-10-24T10:11:06.724Z,4.70
2022-10-24T10:13:45.585Z,4.30
2022-10-24T10:16:29.016Z,4.50
2022-10-24T10:19:22.423Z,4.70
2022-10-24T10:21:57.875Z,5.50
2022-10-24T10:24:43.441Z,5.40
2022-10-24T10:27:30.523Z,5.40
2022-10-24T10:30:15.147Z,5.30
2022-10-24T10:33:10.874Z,5.10
2022-10-24T10:36:19.414Z,4.60
2022-10-24T10:38:55.689Z,5.30
2022-10-24T10:41:41.623Z,5.80
2022-10-24T10:44:24.719Z,5.30
2022-10-24T10:47:35.182Z,5.70
2022-10-24T10:50:26.075Z,5.90
2022-10-24T10:53:00.437Z,5.60
2022-10-24T10:56:08.600Z,4.70
2022-10-24T10:58:53.110Z,5.70
2022-10-24T11:01:30.267Z,5.30
2022-10-24T11:04:26.500Z,5.10
2022-10-24T11:07:11.782Z,5.00
2022-10-24T11:09:45.246Z,5.70
2022-10-24T11:12:20.854Z,5.00
2022-10-24T11:14:56.288Z,5.80
2022-10-24T11:17:30.170Z,5.60
2022-10-24T11:20:18.842Z,6.00
2022-10-24T11:22:52.882Z,4.50
2022-10-24T11:25:31.865Z,4.10
2022-10-24T11:28:07.244Z,4.60
2022-10-24T11:30:56.391Z,5.60
2022-10-24T11:33:28.054Z,6.40
2022-10-24T11:36:05.375Z,5.10
2022-10-24T11:38:38.529Z,5.50
2022-10-24T11:41:23.948Z,5.30
2022-10-24T11:43:56.342Z,4.80
2022-10-24T11:46:32.034Z,5.30
2022-10-24T11:49:12.338Z,4.80
2022-10-24T11:51:55.517Z,5.30
2022-10-24T11:54:37.451Z,4.90
2022-10-24T11:57:17.839Z,6.00
2022-10-24T11:59:45.813Z,5.50
2022-10-24T12:02:51.047Z,6.30
2022-10-24T12:05:34.894Z,5.50
2022-10-24T12:08:11.356Z,5.70
2022-10-24T12:11:04.912Z,5.40
2022-10-24T12:13:54.376Z,4.90
2022-10-24T12:17:09.706Z,4.60
2022-10-24T12:19:41.399Z,5.20
2022-10-24T12:22:17.643Z,5.30
2022-10-24T12:24:45.700Z,5.00
2022-10-24T12:27:27.183Z,5.30
2022-10-24T12:30:04.114Z,4.60
2022-10-24T12:32:40.260Z,5.40
2022-10-24T12:35:31.344Z,5.40
2022-10-24T12:38:00.998Z,5.30
2022-10-24T12:40:58.643Z,5.20
2022-10-24T12:43:37.062Z,5.10
2022-10-24T12:46:22.657Z,4.90
2022-10-24T12:48:56.817Z,5.50
2022-10-24T12:51:39.231Z,5.00
2022-10-24T12:54:13.003Z,6.10
2022-10-24T12:56:49.820Z,5.60
2022-10-24T12:59:31.826Z,6.60
2022-10-24T13:02:12.572Z,6.50
2022-10-24T13:05:03.138Z,5.40
2022-10-24T13:10:33.537Z,6.20
2022-10-24T13:13:26.444Z,5.40
2022-10-24T13:16:08.289Z,5.30
2022-10-24T13:18:50.889Z,5.00
2022-10-24T13:21:21.722Z,5.50
2022-10-24T13:23:50.670Z,6.00
2022-10-24T13:26:55.739Z,6.30
2022-10-24T13:29:23.539Z,5.40
2022-10-24T13:31:54.165Z,5.50
2022-10-24T13:37:02.734Z,6.00
2022-10-24T13:39:38.687Z,7.30
2022-10-24T13:42:37.644Z,6.60
2022-10-24T13:45:19.489Z,6.90
2022-10-24T13:47:53.916Z,7.60
2022-10-24T13:50:26.720Z,7.30
2022-10-24T13:53:15.989Z,8.60
2022-10-24T13:55:47.787Z,6.50
2022-10-24T13:58:20.110Z,7.20
2022-10-24T14:00:56.837Z,6.40
2022-10-24T14:03:27.248Z,7.80
2022-10-24T14:06:08.574Z,6.50
2022-10-24T14:08:56.071Z,7.20
2022-10-24T14:11:31.406Z,6.80
2022-10-24T14:14:04.253Z,6.40
2022-10-24T14:16:36.161Z,7.10
2022-10-24T14:19:27.069Z,7.60
2022-10-24T14:21:59.292Z,5.80
2022-10-24T14:24:27.059Z,6.30
2022-10-24T14:26:56.870Z,7.40
2022-10-24T14:29:31.841Z,6.60
2022-10-24T14:32:01.360Z,6.70
2022-10-24T14:34:35.187Z,6.70
2022-10-24T14:37:30.886Z,6.40
2022-10-24T14:39:59.380Z,6.10
2022-10-24T14:42:28.406Z,6.70
2022-10-24T14:44:58.405Z,6.90
2022-10-24T14:47:38.935Z,7.90
2022-10-24T14:50:40.928Z,8.20
2022-10-24T14:53:36.807Z,8.00
2022-10-24T14:56:08.280Z,7.30
2022-10-24T14:58:37.741Z,7.70
2022-10-24T15:01:05.677Z,8.00
2022-10-24T15:03:33.570Z,7.60
2022-10-24T15:06:12.903Z,8.20
2022-10-24T15:08:45.930Z,7.50
2022-10-24T15:11:22.092Z,8.00
2022-10-24T15:14:05.642Z,8.50
2022-10-24T15:16:38.689Z,8.60
2022-10-24T15:19:14.671Z,9.90
2022-10-24T15:21:45.367Z,12.30
2022-10-24T15:24:24.166Z,12.50
2022-10-24T15:26:52.891Z,13.20
2022-10-24T15:29:23.082Z,12.50
2022-10-24T15:31:52.169Z,10.20
2022-10-24T15:34:23.853Z,9.60
2022-10-24T15:36:52.863Z,10.10
2022-10-24T15:39:24.529Z,10.20
2022-10-24T15:41:53.705Z,12.20
2022-10-24T15:44:25.632Z,12.20
2022-10-24T15:46:54.332Z,14.40
2022-10-24T15:49:22.265Z,15.30
2022-10-24T15:51:50.993Z,16.20
2022-10-24T15:54:20.995Z,11.80
2022-10-24T15:56:49.832Z,12.20
2022-10-24T15:59:19.809Z,10.40
2022-10-24T16:01:51.254Z,10.30
2022-10-24T16:04:20.155Z,10.70
2022-10-24T16:06:49.195Z,11.20
2022-10-24T16:09:20.828Z,11.20
2022-10-24T16:11:49.264Z,10.40
2022-10-24T16:14:22.172Z,12.20
2022-10-24T16:16:50.050Z,10.20
2022-10-24T16:19:20.560Z,10.90
2022-10-24T16:24:16.125Z,11.20
2022-10-24T16:26:44.338Z,10.00
2022-10-24T16:29:12.120Z,9.80
2022-10-24T16:31:39.998Z,8.70
2022-10-24T16:34:07.769Z,8.10
2022-10-24T16:36:35.693Z,8.20
2022-10-24T16:39:04.142Z,9.20
2022-10-24T16:41:31.926Z,9.00
2022-10-24T16:43:59.777Z,8.50
2022-10-24T16:46:28.252Z,7.70
2022-10-24T16:48:56.236Z,9.50
2022-10-24T16:51:32.408Z,8.70
2022-10-24T16:54:02.634Z,8.80
2022-10-24T16:56:30.859Z,8.20
2022-10-24T16:58:58.754Z,7.90
2022-10-24T17:01:28.015Z,7.40
2022-10-24T17:03:56.000Z,8.20
2022-10-24T17:06:24.040Z,7.90
2022-10-24T17:08:52.572Z,8.40
2022-10-24T17:11:43.216Z,8.50
2022-10-24T17:16:41.850Z,10.40
2022-10-24T17:19:16.314Z,9.30
2022-10-24T17:21:48.207Z,8.50
2022-10-24T17:24:22.610Z,8.50
2022-10-24T17:26:50.714Z,8.30
2022-10-24T17:29:31.442Z,7.90
2022-10-24T17:31:59.833Z,8.10
2022-10-24T17:34:28.662Z,7.70
2022-10-24T17:37:10.880Z,8.70
2022-10-24T17:39:52.620Z,8.70
2022-10-24T17:42:21.224Z,9.80
2022-10-24T17:44:49.194Z,9.50
2022-10-24T17:47:17.129Z,10.60
2022-10-24T17:49:44.909Z,8.80
2022-10-24T17:52:17.600Z,8.50
2022-10-24T17:54:46.006Z,8.90
2022-10-24T17:57:14.060Z,8.50
2022-10-24T17:59:41.899Z,7.70
2022-10-24T18:02:14.384Z,8.20
2022-10-24T18:04:44.675Z,10.00
2022-10-24T18:07:12.802Z,9.50
2022-10-24T18:09:40.709Z,10.50
2022-10-24T18:12:08.610Z,10.60
2022-10-24T18:14:37.566Z,9.40
2022-10-24T18:17:05.437Z,10.10
2022-10-24T18:19:33.298Z,10.00
2022-10-24T18:22:01.161Z,9.30
2022-10-24T18:24:29.024Z,8.60
2022-10-24T18:26:56.810Z,10.00
2022-10-24T18:29:24.950Z,10.30
2022-10-24T18:31:53.287Z,11.20
2022-10-24T18:34:21.031Z,11.00
2022-10-24T18:36:48.904Z,10.70
2022-10-24T18:39:17.222Z,9.80
2022-10-24T18:41:49.027Z,9.50
2022-10-24T18:44:29.443Z,9.90
2022-10-24T18:47:03.556Z,9.20
2022-10-24T18:49:33.697Z,9.40
2022-10-24T18:52:10.705Z,9.40
2022-10-24T18:54:46.884Z,9.50
2022-10-24T18:57:22.960Z,10.90
2022-10-24T18:59:51.464Z,11.10
2022-10-24T19:02:35.168Z,11.00
2022-10-24T19:05:15.410Z,11.40
2022-10-24T19:07:44.978Z,11.80
2022-10-24T19:10:23.614Z,12.40
2022-10-24T19:12:54.281Z,11.10
2022-10-24T19:15:23.010Z,12.30
2022-10-24T19:17:52.288Z,11.40
2022-10-24T19:20:23.422Z,10.20
2022-10-24T19:22:51.528Z,11.50
2022-10-24T19:25:20.183Z,12.50
2022-10-24T19:27:49.410Z,13.50
2022-10-24T19:30:17.302Z,13.20
2022-10-24T19:32:46.732Z,13.10
2022-10-24T19:35:16.247Z,12.60
2022-10-24T19:37:45.274Z,12.30
2022-10-24T19:40:13.579Z,13.10
2022-10-24T19:42:41.646Z,12.60
2022-10-24T19:45:10.239Z,13.50
2022-10-24T19:47:38.007Z,12.40
2022-10-24T19:50:06.546Z,13.70
2022-10-24T19:52:35.365Z,13.90
2022-10-24T19:55:03.302Z,14.00
2022-10-24T19:57:31.291Z,13.90
2022-10-24T19:59:59.116Z,13.70
2022-10-24T20:02:28.194Z,12.80
2022-10-24T20:04:55.911Z,13.30
2022-10-24T20:07:23.767Z,13.30
2022-10-24T20:09:51.669Z,12.20
2022-10-24T20:12:20.882Z,14.10
2022-10-24T20:14:48.810Z,14.80
2022-10-24T20:17:17.073Z,14.10
2022-10-24T20:19:44.945Z,14.20
2022-10-24T20:22:12.827Z,14.90
2022-10-24T20:24:40.636Z,15.00
2022-10-24T20:27:08.534Z,14.50
2022-10-24T20:29:37.711Z,14.50
2022-10-24T20:32:05.568Z,13.90
2022-10-24T20:34:33.273Z,13.90
2022-10-24T20:37:01.032Z,13.20
2022-10-24T20:39:32.112Z,12.10
2022-10-24T20:42:00.003Z,13.10
2022-10-24T20:44:27.740Z,13.90
2022-10-24T20:46:56.694Z,13.90
2022-10-24T20:49:24.877Z,14.90
2022-10-24T20:51:52.735Z,13.60
2022-10-24T20:54:20.533Z,14.90
2022-10-24T20:56:48.496Z,15.70
2022-10-24T20:59:17.023Z,14.10
2022-10-24T21:01:44.830Z,17.90
2022-10-24T21:04:14.667Z,19.30
2022-10-24T21:06:44.960Z,19.40
2022-10-24T21:09:12.868Z,17.60
2022-10-24T21:11:40.652Z,17.80
2022-10-24T21:14:11.861Z,17.60
2022-10-24T21:16:39.678Z,16.90
2022-10-24T21:19:07.467Z,16.20
2022-10-24T21:21:35.261Z,16.20
2022-10-24T21:24:05.718Z,15.60
2022-10-24T21:26:38.530Z,15.20
2022-10-24T21:29:20.956Z,18.20
2022-10-24T21:31:56.018Z,20.10
2022-10-24T21:34:23.745Z,20.60
2022-10-24T21:36:51.609Z,24.10
2022-10-24T21:39:19.447Z,23.80
2022-10-24T21:41:47.218Z,22.60
2022-10-24T21:44:15.174Z,21.50
2022-10-24T21:46:43.139Z,18.50
2022-10-24T21:49:11.409Z,16.60
2022-10-24T21:51:41.305Z,16.80
2022-10-24T21:54:35.489Z,16.80
2022-10-24T21:57:03.365Z,17.50
2022-10-24T21:59:31.137Z,18.30
2022-10-24T22:01:59.068Z,19.00
2022-10-24T22:04:26.907Z,18.00
2022-10-24T22:06:54.639Z,17.70
2022-10-24T22:09:23.890Z,17.10
2022-10-24T22:11:54.760Z,16.00
2022-10-24T22:16:50.287Z,14.50
2022-10-24T22:19:18.176Z,14.50
2022-10-24T22:21:49.118Z,14.40
2022-10-24T22:24:20.250Z,14.30
2022-10-24T22:26:49.196Z,14.80
2022-10-24T22:29:20.289Z,14.80
2022-10-24T22:31:48.353Z,15.00
2022-10-24T22:34:19.715Z,14.00
2022-10-24T22:36:52.797Z,14.80
2022-10-24T22:39:23.415Z,14.90
2022-10-24T22:41:52.158Z,14.00
2022-10-24T22:44:21.219Z,13.10
2022-10-24T22:47:01.045Z,13.40
2022-10-24T22:49:44.042Z,13.50
2022-10-24T22:52:13.219Z,12.60
2022-10-24T22:54:41.225Z,12.50
2022-10-24T22:57:09.351Z,12.60
2022-10-24T22:59:37.422Z,12.90
2022-10-24T23:02:19.415Z,14.30
2022-10-24T23:04:53.588Z,14.50
2022-10-24T23:07:32.206Z,14.60
2022-10-24T23:09:59.973Z,13.70
2022-10-24T23:12:28.046Z,13.10
2022-10-24T23:14:56.011Z,12.80
2022-10-24T23:17:29.789Z,13.50
2022-10-24T23:19:57.826Z,13.70
2022-10-24T23:22:28.183Z,13.50
2022-10-24T23:24:58.913Z,12.70
2022-10-24T23:27:36.165Z,13.40
2022-10-24T23:30:07.408Z,13.80
2022-10-24T23:32:38.588Z,14.60
2022-10-24T23:35:07.572Z,14.50
2022-10-24T23:37:41.822Z,15.30
2022-10-24T23:40:32.119Z,14.00
2022-10-24T23:43:01.063Z,13.30
2022-10-24T23:45:35.622Z,13.80
2022-10-24T23:48:25.192Z,13.40
2022-10-24T23:51:09.006Z,14.20
2022-10-24T23:53:48.967Z,13.10
2022-10-24T23:56:25.415Z,13.40
2022-10-24T23:58:53.954Z,14.20
